Grosvenor Dale, Connecticut
Current Conditions -  °F | °C
As of 5:54 AM on Saturday 25 Oct 2014 (Local Time) from KORH Reporting Station
Clear Clear  
Wind Chill: 37°   Ceiling: Unl
Heat Index: 43°   Visibility: 10mi
Dew Point: 36°   Wind: 12mph
Humidity: 76%   Direction: 280°W
Pressure: 29.76"   Gusts: NA
Location:  41.97°N, 71.9°W
Report Text: KORH 250954Z AUTO 28010KT 10SM CLR 06/02 A2976 RMK AO2 SLP084 T00610022 $
Loading
Personal Weather Stations






























Interactive Weather Map
Tropical Storm Tracking
New forecast layout! Learn more

10-Day Weather Forecast

Advertisements
Track Severe Weather on mobile